createdAt,value
2022-08-02T00:00:35.023Z,2.00
2022-08-02T00:03:02.834Z,1.90
2022-08-02T00:05:29.783Z,2.00
2022-08-02T00:07:56.805Z,2.20
2022-08-02T00:10:23.934Z,2.13
2022-08-02T00:12:51.799Z,2.10
2022-08-02T00:15:20.346Z,1.87
2022-08-02T00:17:48.615Z,2.20
2022-08-02T00:20:16.291Z,2.20
2022-08-02T00:22:44.203Z,2.33
2022-08-02T00:25:11.309Z,2.40
2022-08-02T00:27:38.670Z,2.10
2022-08-02T00:30:06.150Z,2.00
2022-08-02T00:32:33.266Z,1.97
2022-08-02T00:35:02.058Z,2.17
2022-08-02T00:37:29.065Z,1.90
2022-08-02T00:39:57.500Z,2.10
2022-08-02T00:42:26.256Z,2.60
2022-08-02T00:44:53.286Z,2.30
2022-08-02T00:47:20.272Z,2.00
2022-08-02T00:49:47.930Z,2.50
2022-08-02T00:52:15.173Z,2.40
2022-08-02T00:54:42.525Z,3.00
2022-08-02T00:57:09.585Z,2.60
2022-08-02T00:59:36.601Z,2.77
2022-08-02T01:02:03.879Z,2.27
2022-08-02T01:04:32.371Z,2.50
2022-08-02T01:07:01.144Z,2.47
2022-08-02T01:09:31.682Z,3.10
2022-08-02T01:12:02.541Z,2.50
2022-08-02T01:14:30.474Z,2.57
2022-08-02T01:17:08.950Z,2.23
2022-08-02T01:19:45.504Z,2.50
2022-08-02T01:22:39.660Z,2.50
2022-08-02T01:25:30.035Z,2.73
2022-08-02T01:28:32.067Z,2.67
2022-08-02T01:31:05.843Z,2.60
2022-08-02T01:33:39.610Z,2.97
2022-08-02T01:36:10.773Z,2.93
2022-08-02T01:38:49.295Z,3.20
2022-08-02T01:41:20.360Z,2.90
2022-08-02T01:43:56.549Z,3.07
2022-08-02T01:46:24.725Z,3.50
2022-08-02T01:48:54.082Z,3.27
2022-08-02T01:51:41.187Z,3.63
2022-08-02T01:54:12.394Z,3.40
2022-08-02T01:56:40.969Z,3.70
2022-08-02T01:59:09.453Z,3.63
2022-08-02T02:01:37.469Z,3.67
2022-08-02T02:04:10.280Z,4.10
2022-08-02T02:06:37.547Z,4.10
2022-08-02T02:09:05.338Z,3.53
2022-08-02T02:12:13.876Z,3.83
2022-08-02T02:14:21.086Z,3.60
2022-08-02T02:16:48.795Z,3.30
2022-08-02T02:19:21.194Z,3.00
2022-08-02T02:21:48.860Z,3.07
2022-08-02T02:24:15.922Z,3.20
2022-08-02T02:26:52.329Z,3.40
2022-08-02T02:29:22.124Z,2.97
2022-08-02T02:31:53.298Z,3.23
2022-08-02T02:34:35.905Z,2.90
2022-08-02T02:37:05.384Z,3.20
2022-08-02T02:39:33.804Z,3.13
2022-08-02T02:42:03.914Z,2.97
2022-08-02T02:44:32.242Z,3.33
2022-08-02T02:46:59.985Z,3.37
2022-08-02T02:49:28.261Z,2.97
2022-08-02T02:51:55.981Z,3.00
2022-08-02T02:54:33.212Z,3.17
2022-08-02T02:57:04.627Z,3.37
2022-08-02T02:59:33.009Z,3.13
2022-08-02T03:02:00.312Z,3.30
2022-08-02T03:04:56.277Z,3.67
2022-08-02T03:07:19.734Z,3.23
2022-08-02T03:09:54.214Z,3.50
2022-08-02T03:12:27.163Z,3.23
2022-08-02T03:14:59.593Z,3.60
2022-08-02T03:17:27.690Z,4.17
2022-08-02T03:19:54.864Z,3.93
2022-08-02T03:22:21.787Z,4.43
2022-08-02T03:24:48.752Z,4.53
2022-08-02T03:27:16.284Z,4.47
2022-08-02T03:29:44.162Z,4.50
2022-08-02T03:32:11.660Z,4.70
2022-08-02T03:34:39.222Z,5.10
2022-08-02T03:37:06.914Z,4.83
2022-08-02T03:39:34.364Z,4.80
2022-08-02T03:42:01.547Z,4.20
2022-08-02T03:44:29.504Z,4.40
2022-08-02T03:46:57.241Z,4.00
2022-08-02T03:49:24.525Z,4.43
2022-08-02T03:51:56.696Z,4.20
2022-08-02T03:54:23.886Z,4.17
2022-08-02T03:57:03.722Z,4.20
2022-08-02T03:59:43.690Z,4.23
2022-08-02T04:02:12.791Z,4.30
2022-08-02T04:04:40.351Z,4.53
2022-08-02T04:07:08.429Z,4.13
2022-08-02T04:09:36.018Z,4.37
2022-08-02T04:12:02.980Z,4.03
2022-08-02T04:14:31.011Z,4.17
2022-08-02T04:17:08.115Z,4.33
2022-08-02T04:19:44.045Z,4.33
2022-08-02T04:22:16.670Z,4.20
2022-08-02T04:24:49.782Z,4.43
2022-08-02T04:27:50.929Z,4.07
2022-08-02T04:30:08.342Z,4.17
2022-08-02T04:32:35.845Z,3.77
2022-08-02T04:35:20.125Z,4.37
2022-08-02T04:38:05.557Z,3.87
2022-08-02T04:40:36.248Z,4.10
2022-08-02T04:43:03.660Z,4.47
2022-08-02T04:45:31.322Z,4.33
2022-08-02T04:48:05.102Z,3.90
2022-08-02T04:50:34.223Z,4.17
2022-08-02T04:53:10.800Z,4.60
2022-08-02T04:55:57.309Z,4.30
2022-08-02T04:58:40.134Z,4.30
2022-08-02T05:01:09.219Z,4.27
2022-08-02T05:03:36.230Z,4.80
2022-08-02T05:06:03.553Z,4.63
2022-08-02T05:08:53.258Z,4.73
2022-08-02T05:11:34.522Z,4.27
2022-08-02T05:14:05.186Z,4.27
2022-08-02T05:16:32.505Z,4.40
2022-08-02T05:19:00.927Z,4.07
2022-08-02T05:21:28.278Z,3.87
2022-08-02T05:23:55.290Z,3.40
2022-08-02T05:26:22.227Z,3.40
2022-08-02T05:28:50.802Z,3.70
2022-08-02T05:31:17.748Z,3.80
2022-08-02T05:33:44.727Z,3.83
2022-08-02T05:36:12.736Z,3.40
2022-08-02T05:39:04.834Z,3.30
2022-08-02T05:41:32.413Z,3.47
2022-08-02T05:43:59.503Z,3.57
2022-08-02T05:46:27.409Z,3.97
2022-08-02T05:48:54.887Z,3.80
2022-08-02T05:51:38.469Z,3.53
2022-08-02T05:54:32.758Z,4.00
2022-08-02T05:57:10.332Z,4.00
2022-08-02T05:59:54.651Z,3.70
2022-08-02T06:02:37.096Z,3.83
2022-08-02T06:05:11.327Z,3.67
2022-08-02T06:07:41.546Z,3.60
2022-08-02T06:10:10.162Z,3.80
2022-08-02T06:12:44.521Z,3.20
2022-08-02T06:15:14.341Z,3.80
2022-08-02T06:17:45.672Z,4.20
2022-08-02T06:20:14.934Z,3.70
2022-08-02T06:22:44.120Z,3.90
2022-08-02T06:25:50.118Z,3.53
2022-08-02T06:28:03.668Z,3.50
2022-08-02T06:30:33.420Z,3.53
2022-08-02T06:33:00.885Z,3.40
2022-08-02T06:35:40.432Z,3.10
2022-08-02T06:38:08.285Z,2.97
2022-08-02T06:40:35.166Z,3.45
2022-08-02T06:43:31.270Z,3.38
2022-08-02T06:47:08.354Z,3.88
2022-08-02T06:48:46.532Z,3.30
2022-08-02T06:51:13.979Z,3.25
2022-08-02T06:53:41.314Z,3.28
2022-08-02T06:56:09.972Z,2.92
2022-08-02T06:58:38.446Z,3.30
2022-08-02T07:01:07.589Z,3.25
2022-08-02T07:03:37.660Z,2.80
2022-08-02T07:06:05.809Z,3.00
2022-08-02T07:08:33.202Z,2.95
2022-08-02T07:11:02.155Z,3.20
2022-08-02T07:13:29.355Z,2.60
2022-08-02T07:15:57.160Z,2.95
2022-08-02T07:18:25.355Z,2.60
2022-08-02T07:20:53.071Z,2.65
2022-08-02T07:23:23.644Z,2.90
2022-08-02T07:26:02.230Z,2.78
2022-08-02T07:28:31.755Z,2.63
2022-08-02T07:30:59.086Z,2.70
2022-08-02T07:33:37.470Z,2.33
2022-08-02T07:36:09.677Z,2.53
2022-08-02T07:38:44.126Z,2.28
2022-08-02T07:41:14.099Z,2.30
2022-08-02T07:43:41.431Z,2.20
2022-08-02T07:46:08.550Z,2.33
2022-08-02T07:48:35.843Z,2.13
2022-08-02T07:51:03.095Z,1.85
2022-08-02T07:53:50.854Z,2.00
2022-08-02T07:56:19.314Z,1.90
2022-08-02T07:58:46.635Z,1.67
2022-08-02T08:01:15.930Z,1.67
2022-08-02T08:03:44.093Z,1.95
2022-08-02T08:06:12.452Z,2.00
2022-08-02T08:08:41.928Z,2.03
2022-08-02T08:11:09.459Z,1.95
2022-08-02T08:13:37.158Z,2.05
2022-08-02T08:16:05.159Z,2.10
2022-08-02T08:18:33.384Z,1.65
2022-08-02T08:21:01.929Z,2.05
2022-08-02T08:23:32.839Z,1.85
2022-08-02T08:26:01.136Z,1.98
2022-08-02T08:28:28.952Z,1.92
2022-08-02T08:30:56.298Z,1.88
2022-08-02T08:33:25.464Z,1.90
2022-08-02T08:35:53.402Z,2.05
2022-08-02T08:38:22.307Z,1.63
2022-08-02T08:40:51.584Z,1.73
2022-08-02T08:43:18.926Z,2.05
2022-08-02T08:45:55.952Z,1.70
2022-08-02T08:48:31.098Z,1.95
2022-08-02T08:51:08.382Z,1.90
2022-08-02T08:53:41.602Z,1.88
2022-08-02T08:56:14.099Z,1.80
2022-08-02T08:58:44.987Z,1.85
2022-08-02T09:01:14.704Z,1.63
2022-08-02T09:03:42.639Z,1.80
2022-08-02T09:06:12.997Z,1.55
2022-08-02T09:08:40.265Z,1.48
2022-08-02T09:11:14.547Z,1.58
2022-08-02T09:13:53.470Z,1.92
2022-08-02T09:16:34.591Z,1.48
2022-08-02T09:19:20.978Z,1.58
2022-08-02T09:22:20.776Z,1.58
2022-08-02T09:24:49.984Z,1.70
2022-08-02T09:27:19.864Z,1.42
2022-08-02T09:30:12.125Z,1.50
2022-08-02T09:32:50.088Z,1.42
2022-08-02T09:36:18.752Z,1.40
2022-08-02T09:39:03.078Z,1.35
2022-08-02T09:41:32.358Z,1.73
2022-08-02T09:44:05.148Z,1.50
2022-08-02T09:46:38.558Z,1.35
2022-08-02T09:49:15.761Z,1.23
2022-08-02T09:51:47.646Z,1.17
2022-08-02T09:54:25.276Z,1.15
2022-08-02T09:56:54.590Z,1.25
2022-08-02T09:59:25.122Z,1.20
2022-08-02T10:02:01.929Z,0.93
2022-08-02T10:04:34.175Z,1.02
2022-08-02T10:07:13.294Z,1.40
2022-08-02T10:09:47.440Z,1.10
2022-08-02T10:12:16.401Z,1.10
2022-08-02T10:14:45.590Z,0.95
2022-08-02T10:17:12.736Z,1.10
2022-08-02T10:20:03.101Z,1.10
2022-08-02T10:22:29.182Z,1.30
2022-08-02T10:24:57.999Z,1.63
2022-08-02T10:27:25.967Z,1.60
2022-08-02T10:29:56.459Z,1.30
2022-08-02T10:32:38.352Z,1.67
2022-08-02T10:35:27.040Z,1.40
2022-08-02T10:37:58.198Z,1.33
2022-08-02T10:40:28.348Z,1.35
2022-08-02T10:43:01.545Z,1.23
2022-08-02T10:45:29.214Z,1.48
2022-08-02T10:48:17.331Z,1.33
2022-08-02T10:50:47.333Z,1.20
2022-08-02T10:53:35.312Z,1.30
2022-08-02T10:56:04.812Z,1.30
2022-08-02T10:58:33.504Z,1.60
2022-08-02T11:01:07.781Z,1.30
2022-08-02T11:03:40.742Z,1.30
2022-08-02T11:06:25.636Z,1.40
2022-08-02T11:09:35.935Z,1.30
2022-08-02T11:12:13.471Z,1.35
2022-08-02T11:15:07.684Z,1.60
2022-08-02T11:17:56.695Z,1.60
2022-08-02T11:20:26.350Z,1.35
2022-08-02T11:23:23.624Z,1.40
2022-08-02T11:26:36.510Z,1.48
2022-08-02T11:29:07.715Z,1.10
2022-08-02T11:31:49.350Z,1.33
2022-08-02T11:34:28.931Z,1.20
2022-08-02T11:37:08.490Z,1.20
2022-08-02T11:39:40.481Z,1.30
2022-08-02T11:42:09.836Z,1.33
2022-08-02T11:44:41.959Z,1.70
2022-08-02T11:47:09.992Z,1.48
2022-08-02T11:49:40.410Z,1.88
2022-08-02T11:52:12.417Z,3.50
2022-08-02T11:54:43.483Z,2.20
2022-08-02T11:57:20.819Z,2.75
2022-08-02T11:59:51.523Z,1.95
2022-08-02T12:02:38.553Z,2.10
2022-08-02T12:05:09.367Z,1.50
2022-08-02T12:07:45.969Z,1.63
2022-08-02T12:10:21.755Z,2.83
2022-08-02T12:12:54.308Z,1.50
2022-08-02T12:15:45.792Z,2.88
2022-08-02T12:18:39.221Z,2.17
2022-08-02T12:21:27.722Z,1.80
2022-08-02T12:24:00.017Z,1.40
2022-08-02T12:26:29.650Z,2.35
2022-08-02T12:29:03.147Z,2.47
2022-08-02T12:31:56.524Z,1.67
2022-08-02T12:34:31.945Z,2.65
2022-08-02T12:37:10.921Z,2.20
2022-08-02T12:39:41.818Z,2.17
2022-08-02T12:42:14.146Z,1.80
2022-08-02T12:44:58.094Z,2.20
2022-08-02T12:47:35.444Z,1.60
2022-08-02T12:50:18.036Z,1.80
2022-08-02T12:52:47.037Z,2.15
2022-08-02T12:55:24.229Z,1.80
2022-08-02T12:57:55.799Z,1.60
2022-08-02T13:00:26.731Z,2.30
2022-08-02T13:02:56.395Z,1.50
2022-08-02T13:05:29.771Z,2.00
2022-08-02T13:08:19.316Z,1.95
2022-08-02T13:10:51.382Z,1.92
2022-08-02T13:13:22.936Z,1.75
2022-08-02T13:15:52.241Z,1.60
2022-08-02T13:18:21.935Z,2.05
2022-08-02T13:20:50.551Z,2.00
2022-08-02T13:23:21.100Z,1.90
2022-08-02T13:25:52.754Z,1.77
2022-08-02T13:28:24.366Z,1.73
2022-08-02T13:30:52.942Z,1.58
2022-08-02T13:33:22.531Z,2.00
2022-08-02T13:39:06.089Z,1.90
2022-08-02T13:41:34.876Z,1.40
2022-08-02T13:44:09.575Z,1.88
2022-08-02T13:46:45.135Z,1.77
2022-08-02T13:49:19.057Z,1.83
2022-08-02T13:51:48.359Z,1.30
2022-08-02T13:54:16.323Z,1.67
2022-08-02T13:56:45.040Z,1.60
2022-08-02T13:59:54.132Z,2.00
2022-08-02T14:02:02.565Z,2.33
2022-08-02T14:04:30.859Z,1.60
2022-08-02T14:06:59.064Z,1.63
2022-08-02T14:09:33.876Z,1.55
2022-08-02T14:12:01.413Z,1.50
2022-08-02T14:14:28.581Z,1.58
2022-08-02T14:17:01.934Z,1.40
2022-08-02T14:19:29.198Z,1.40
2022-08-02T14:22:11.412Z,1.90
2022-08-02T14:24:43.769Z,1.48
2022-08-02T14:27:11.162Z,1.63
2022-08-02T14:29:38.380Z,2.00
2022-08-02T14:32:05.956Z,1.63
2022-08-02T14:34:33.225Z,1.30
2022-08-02T14:37:00.516Z,1.45
2022-08-02T14:42:47.714Z,1.52
2022-08-02T14:45:43.695Z,1.90
2022-08-02T14:48:12.074Z,1.80
2022-08-02T14:50:39.359Z,1.40
2022-08-02T14:53:06.582Z,1.60
2022-08-02T14:58:34.620Z,1.48
2022-08-02T15:01:02.031Z,1.27
2022-08-02T15:03:29.858Z,1.48
2022-08-02T15:05:58.359Z,1.65
2022-08-02T15:08:25.406Z,1.45
2022-08-02T15:10:52.549Z,1.83
2022-08-02T15:13:19.937Z,2.20
2022-08-02T15:15:48.418Z,2.20
2022-08-02T15:18:15.653Z,1.75
2022-08-02T15:20:53.468Z,4.38
2022-08-02T15:23:25.516Z,3.15
2022-08-02T15:26:05.871Z,2.88
2022-08-02T15:28:33.083Z,3.28
2022-08-02T15:31:00.266Z,4.55
2022-08-02T15:33:27.649Z,2.33
2022-08-02T15:35:54.769Z,2.03
2022-08-02T15:38:23.460Z,2.05
2022-08-02T15:40:53.333Z,3.38
2022-08-02T15:43:21.589Z,2.20
